createdAt,value
2022-08-05T00:02:07.521Z,387
2022-08-05T00:22:01.877Z,388
2022-08-05T00:42:01.891Z,392
2022-08-05T01:02:01.909Z,392
2022-08-05T01:22:01.921Z,393
2022-08-05T01:42:01.953Z,395
2022-08-05T02:02:01.988Z,399
2022-08-05T02:22:01.969Z,396
2022-08-05T02:42:01.977Z,398
2022-08-05T03:22:02.029Z,395
2022-08-05T03:42:02.043Z,399
2022-08-05T04:02:02.077Z,402
2022-08-05T04:22:05.463Z,404
2022-08-05T04:42:02.064Z,399
2022-08-05T05:02:06.453Z,401
2022-08-05T05:22:03.712Z,401
2022-08-05T05:42:02.111Z,400
2022-08-05T06:02:02.138Z,400
2022-08-05T06:22:02.199Z,401
2022-08-05T06:42:03.963Z,400
2022-08-05T07:02:02.162Z,396
2022-08-05T07:22:02.210Z,399
2022-08-05T07:42:09.698Z,403
2022-08-05T08:02:01.710Z,405
2022-08-05T08:22:02.224Z,406
2022-08-05T08:42:02.310Z,404
2022-08-05T09:02:02.249Z,402
2022-08-05T09:22:18.224Z,405
2022-08-05T09:42:02.279Z,403
2022-08-05T10:02:02.296Z,400
2022-08-05T10:22:02.314Z,400
2022-08-05T10:42:02.332Z,404
2022-08-05T11:02:03.880Z,404
2022-08-05T11:22:02.347Z,405
2022-08-05T11:42:04.443Z,406
2022-08-05T12:02:02.391Z,407
2022-08-05T12:22:02.401Z,405
2022-08-05T12:42:02.416Z,402
2022-08-05T13:42:02.458Z,399
2022-08-05T14:02:02.457Z,399
2022-08-05T14:22:07.034Z,396
2022-08-05T14:42:19.815Z,398
2022-08-05T15:02:02.550Z,398
2022-08-05T15:22:02.514Z,395
2022-08-05T15:42:02.631Z,399
2022-08-05T16:02:02.623Z,396
2022-08-05T16:22:03.283Z,392
2022-08-05T16:42:13.137Z,396
2022-08-05T17:02:02.615Z,397
2022-08-05T17:22:03.761Z,397
2022-08-05T17:42:17.075Z,395
2022-08-05T18:02:02.830Z,390
2022-08-05T18:22:07.874Z,395
2022-08-05T18:42:04.820Z,391
2022-08-05T19:02:02.714Z,387
2022-08-05T19:22:02.656Z,388
2022-08-05T20:02:02.678Z,388
2022-08-05T20:22:02.693Z,389
2022-08-05T20:42:02.700Z,390
2022-08-05T21:02:02.775Z,392
2022-08-05T21:22:02.731Z,391
2022-08-05T21:42:02.757Z,390
2022-08-05T22:02:02.772Z,392
2022-08-05T22:42:05.235Z,389
2022-08-05T23:02:05.371Z,391
2022-08-05T23:22:02.831Z,392
2022-08-05T23:42:02.851Z,390
